KPHF/PHF METAR and TAF weather

Enter ICAO airport designator
Station Type Date Time Source
KPHF METAR 2023/06/03 23:54 UTC NOAA

KPHF 032354Z 06010KT 10SM OVC012 17/14 A2996 RMK AO2 SLP143 T01670144 10244 20167 51019


Station Type Date Time Source
KPHF Decoded METAR 2023/06/03 23:54 UTC NOAA

WILLIAMSBURG INTERNATIONAL AIRPORT , VA, United States (KPHF) 37-08N 76-30W 12M
Jun 03, 2023 - 07:54 PM EDT / 2023.06.03 2354 UTC
Wind: from the ENE (060 degrees) at 12 MPH (10 KT):0
Visibility: 10 mile(s):0
Sky conditions: overcast
Temperature: 62.1 F (16.7 C)
Dew Point: 57.9 F (14.4 C)
Relative Humidity: 86%
Pressure (altimeter): 29.96 in. Hg (1014 hPa)
Pressure tendency: 0.06 inches (1.9 hPa) higher than three hours ago
ob: KPHF 032354Z 06010KT 10SM OVC012 17/14 A2996 RMK AO2 SLP143 T01670144 10244 20167 51019
cycle: 0

Station Type Date Time Source
KPHF TAF 2023/06/03 22:59 UTC NOAA

TAF
AMD KPHF 032159Z 0322/0418 09009KT P6SM VCSH BKN015
FM040200 06011G18KT P6SM SCT007 OVC010
FM041300 04009KT P6SM BKN025
FM041500 04011G18KT P6SM SCT040

Example: see airport list